Forecasts are only available for sites displaying the forecast symbol.

Some water levels are actually in metres AHD (Australian Height Datum), click individual sites for more details.

Scroll for more >

River gauges, storages, and weirs in the Murray–Darling Basin

Type Location Riversort descending Water level Flow Volume Release Water temp Salinity Rainfall
River Gauge Rochester Campaspe 1.71 m 8/12/2019 17:45 78 ML/Day 8/12/2019 17:45 Not measured Not measured 21.7°C 8/12/2019 17:45 199.8 μS/cm 8/12/2019 17:45 0.0 mm 8/12/2019 9:00 Full data
River Gauge Wilcania Darling -0.26 m 8/12/2019 17:45 1 ML/Day 8/12/2019 17:45 Not measured Not measured 29.2°C 8/12/2019 17:45 0.0 μS/cm 8/12/2019 17:45 Not measured Full data
Storage Menindee Lakes Darling Not measured Not measured 9 GL 6/12/2019 7:45 Not measured Not measured Not measured Not measured Full data
River Gauge Weir 32 Upstream Darling 0.94 m 8/12/2019 17:45 1 ML/Day 8/12/2019 17:45 Not measured Not measured 27.5°C 8/12/2019 17:45 1572.5 μS/cm 8/12/2019 17:45 Not measured Full data
River Gauge Burtundy Darling 0.5 m 8/12/2019 17:45 2075 ML/Day 8/12/2019 17:45 Not measured Not measured 39.6°C 8/12/2019 17:45 1157.8 μS/cm 3/09/2019 14:45 Not measured Full data
Weirs Steven's Weir Upstream Edward 4.47 m 8/12/2019 17:45 Not measured Not measured Not measured Not measured Not measured Not measured Full data
Weirs Steven's Weir Downstream Edward 1.61 m 8/12/2019 17:45 1433 ML/Day 8/12/2019 17:45 Not measured Not measured 22.7°C 8/12/2019 17:45 55.9 μS/cm 8/12/2019 17:45 Not measured Full data
River Gauge McCoy Bridge Goulburn 1.67 m 8/12/2019 17:45 1284 ML/Day 8/12/2019 17:45 Not measured Not measured 24.1°C 8/12/2019 17:45 61.6 μS/cm 8/12/2019 17:45 Not measured Full data
River Gauge Bandiana Kiewa 0.95 m 8/12/2019 17:45 420 ML/Day 8/12/2019 17:45 Not measured Not measured 23.5°C 8/12/2019 17:45 32.6 μS/cm 8/12/2019 17:45 Not measured Full data
River Gauge Kerang Loddon 0.38 m 8/12/2019 17:45 183 ML/Day 8/12/2019 17:45 Not measured Not measured 22.5°C 8/12/2019 17:45 98.8 μS/cm 8/12/2019 17:45 Not measured Full data
River Gauge Hinnomunjie Mitta 0.62 m 8/12/2019 17:45 340 ML/Day 8/12/2019 17:45 Not measured Not measured 19.9°C 8/12/2019 17:45 21.5 μS/cm 8/12/2019 17:45 0.0 mm 8/12/2019 9:00 Full data
Storage Dartmouth Dam Mitta 453.29 m 8/12/2019 18:30 Not measured 2059 GL 8/12/2019 18:30 Not measured Not measured Not measured Not measured Full data
River Gauge Colemans Mitta 2.1 m 8/12/2019 18:30 4044 ML/Day 8/12/2019 18:30 Not measured Not measured 12.2°C 8/12/2019 17:45 46.5 μS/cm 8/12/2019 17:45 Not measured Full data
River Gauge Tallandoon Mitta 2.47 m 8/12/2019 17:45 4513 ML/Day 8/12/2019 17:45 Not measured Not measured 15.9°C 8/12/2019 17:45 36.1 μS/cm 8/12/2019 17:45 Not measured Full data
River Gauge Barmah Choke Murray 2.41 m 8/12/2019 17:45 6902 ML/Day 8/12/2019 17:45 Not measured Not measured Not measured Not measured Not measured Full data
River Gauge Redcliffs Murray Not measured Not measured Not measured Not measured Not measured 43.6 μS/cm 22/10/2019 13:45 Not measured Full data
River Gauge Biggara Murray 0.33 m 8/12/2019 18:00 306 ML/Day 8/12/2019 18:00 Not measured Not measured 20.6°C 8/12/2019 18:00 48.6 μS/cm 8/12/2019 18:00 0.0 mm 8/12/2019 9:00 Full data
River Gauge Bringenbrong Bridge Murray 1.32 m 8/12/2019 18:00 2654 ML/Day 8/12/2019 18:00 Not measured Not measured Not measured Not measured Not measured Full data
River Gauge Pinegrove Murray 1.01 m 8/12/2019 18:00 143 ML/Day 8/12/2019 18:00 Not measured Not measured 22.4°C 8/12/2019 18:00 74.4 μS/cm 8/12/2019 18:00 0.0 mm 8/12/2019 9:00 Full data
River Gauge Jingellic Murray 1.31 m 8/12/2019 17:45 1980 ML/Day 8/12/2019 17:45 Not measured Not measured 23.1°C 8/12/2019 17:45 18.7 μS/cm 8/12/2019 17:45 0.0 mm 8/12/2019 9:00 Full data
Storage Hume Dam Murray 178.54 m 8/12/2019 18:00 Not measured 967 GL 8/12/2019 18:00 10022.0 ML/d8/12/2019 8:00 Not measured Not measured 0.0 mm 8/12/2019 9:00 Full data
River Gauge Doctors Point Murray 2.69 m 8/12/2019 18:00 11322 ML/Day 8/12/2019 18:00 Not measured Not measured 20.3°C 8/12/2019 18:00 51.9 μS/cm 8/12/2019 18:00 Not measured Full data
River Gauge Albury (Union Bridge) Murray 1.67 m 8/12/2019 18:00 Not measured Not measured Not measured 20.2°C 8/12/2019 18:00 53.0 μS/cm 8/12/2019 18:00 Not measured Full data
River Gauge Corowa Murray 2.26 m 8/12/2019 18:00 9604 ML/Day 8/12/2019 18:00 Not measured Not measured 21.5°C 8/12/2019 18:00 54.0 μS/cm 8/12/2019 18:00 Not measured Full data
Weirs Yarrawonga Weir Upstream Murray 124.78 m 8/12/2019 17:45 Not measured Not measured Not measured Not measured Not measured 0.0 mm 8/12/2019 9:00 Full data
Weirs Yarrawonga Weir Downstream Murray 1.5 m 8/12/2019 18:00 8769 ML/Day 8/12/2019 18:00 Not measured Not measured 20.1°C 8/12/2019 18:00 47.1 μS/cm 8/12/2019 18:00 Not measured Full data
River Gauge Yarrawonga Main Channel Murray 123.47 m 8/12/2019 17:45 Not measured Not measured 969.1 ML/d8/12/2019 17:45 Not measured Not measured Not measured Full data
River Gauge Mulwala Canal Murray Not measured Not measured Not measured 1158.5 ML/d8/12/2019 8:45 Not measured Not measured Not measured Full data
River Gauge Tocumwal Murray 2.08 m 8/12/2019 17:45 8906 ML/Day 8/12/2019 17:45 Not measured Not measured 22.5°C 8/12/2019 17:45 43.3 μS/cm 8/12/2019 17:45 Not measured Full data
River Gauge Edward River Offtake Murray 2.39 m 8/12/2019 17:45 1552 ML/Day 8/12/2019 17:45 Not measured Not measured 23.1°C 8/12/2019 17:45 52.0 μS/cm 8/12/2019 17:45 Not measured Full data
River Gauge Gulpa Creek Offtake Murray 3.04 m 8/12/2019 17:45 696 ML/Day 8/12/2019 17:45 Not measured Not measured Not measured Not measured Not measured Full data
River Gauge Echuca Wharf Murray 86.95 m 8/12/2019 15:45 Not measured Not measured Not measured Not measured Not measured Not measured Full data
Weirs Torrumbarry Weir Downstream Murray 2.32 m 8/12/2019 17:45 6694 ML/Day 8/12/2019 17:45 Not measured Not measured 22.3°C 8/12/2019 17:45 61.4 μS/cm 8/12/2019 17:45 Not measured Full data
Weirs Torrumbarry Weir Upstream Murray 86.05 m 8/12/2019 17:30 Not measured 37 GL 8/12/2019 7:45 Not measured 21.5°C 8/12/2019 7:45 61.0 μS/cm 8/12/2019 16:45 0.0 mm 7/12/2019 9:00 Full data
River Gauge Torrumbarry Headworks Murray 84.75 m 8/12/2019 17:45 Not measured Not measured 1498.7 ML/d8/12/2019 17:45 Not measured Not measured Not measured Full data
River Gauge Stoney Crossing Murray 1.5 m 8/12/2019 17:45 647 ML/Day 8/12/2019 17:45 Not measured 629.3 ML/d8/12/2019 7:45 22.4°C 8/12/2019 17:45 143.8 μS/cm 8/12/2019 17:45 Not measured Full data
River Gauge Swan Hill Murray 1.39 m 8/12/2019 17:45 7305 ML/Day 8/12/2019 17:45 Not measured Not measured 23.4°C 8/12/2019 17:45 82.0 μS/cm 8/12/2019 17:45 Not measured Full data
River Gauge Wakool Junction Murray 3.28 m 8/12/2019 17:45 9400 ML/Day 8/12/2019 17:45 Not measured Not measured 23.3°C 8/12/2019 17:45 71.7 μS/cm 8/12/2019 17:45 Not measured Full data
Weirs Euston Weir Upstream Murray 47.62 m 8/12/2019 7:45 Not measured 37 GL 8/12/2019 7:45 Not measured Not measured Not measured 0.0 mm 21/02/2019 9:00 Full data
Weirs Euston Weir Downstream Murray 43.51 m 8/12/2019 17:45 9340 ML/Day 8/12/2019 17:45 Not measured Not measured 22.3°C 8/12/2019 17:45 89.1 μS/cm 8/12/2019 17:45 Not measured Full data
River Gauge Colignan Murray 2.16 m 8/12/2019 17:45 8415 ML/Day 8/12/2019 17:45 Not measured Not measured 24.5°C 8/12/2019 17:45 83.6 μS/cm 8/12/2019 17:45 Not measured Full data
Weirs Mildura Weir downstream Murray 31.01 m 8/12/2019 17:45 Not measured Not measured Not measured 25.2°C 8/12/2019 17:45 91.9 μS/cm 8/12/2019 17:45 Not measured Full data
Weirs Lock 9 Downstream Murray 24.44 m 6/12/2019 7:45 Not measured Not measured Not measured Not measured Not measured Not measured Full data
Weirs Lock 9 Upstream Murray 27.41 m 6/12/2019 7:45 Not measured Not measured Not measured 22.9°C 8/12/2019 10:15 95.6 μS/cm 8/12/2019 15:30 Not measured Full data
Weirs Lock 8 Upstream Murray 24.39 m 6/12/2019 7:45 Not measured Not measured Not measured 22.0°C 8/12/2019 16:30 101.0 μS/cm 2/12/2019 9:00 Not measured Full data
River Gauge Frenchman Creek Murray 27.43 m 6/12/2019 7:45 Not measured Not measured 1108.1 ML/d6/12/2019 7:45 Not measured Not measured Not measured Full data
Storage Lake Victoria Murray 25.61 m 6/12/2019 7:45 Not measured 514 GL 6/12/2019 7:45 Not measured 19.0°C 7/12/2019 2:45 138.9 μS/cm 8/12/2019 14:00 Not measured Full data
River Gauge Rufus River Murray 20.35 m 6/12/2019 7:45 Not measured Not measured 937.8 ML/d6/12/2019 7:45 Not measured 130.6 μS/cm 8/12/2019 15:45 Not measured Full data
Weirs Lock 7 Downstream Murray 20.3 m 6/12/2019 7:45 Not measured Not measured Not measured Not measured Not measured Not measured Full data
Weirs Lock 7 Upstream Murray 21.81 m 6/12/2019 7:45 Not measured Not measured Not measured 22.0°C 8/12/2019 8:00 103.0 μS/cm 6/12/2019 7:45 Not measured Full data
River Gauge Flow to South Australia Murray Not measured Not measured Not measured 6301.9 ML/d6/12/2019 7:45 Not measured Not measured Not measured Full data
Weirs Lock 6 Downstream Murray 16.42 m 6/12/2019 7:45 Not measured Not measured Not measured Not measured Not measured Not measured Full data
Weirs Lock 6 Upstream Murray 19.26 m 6/12/2019 7:45 Not measured Not measured Not measured 24.0°C 8/12/2019 16:15 130.0 μS/cm 8/12/2019 16:15 Not measured Full data
Weirs Lock 5 Downstream Murray 13.42 m 6/12/2019 7:45 Not measured Not measured Not measured Not measured Not measured Not measured Full data
Weirs Lock 5 Upstream Murray 16.35 m 6/12/2019 7:45 Not measured Not measured Not measured 22.0°C 8/12/2019 8:00 136.0 μS/cm 8/12/2019 8:15 Not measured Full data
Weirs Lock 4 Downstream Murray 10.47 m 6/12/2019 7:45 Not measured Not measured Not measured Not measured Not measured Not measured Full data
Weirs Lock 4 Upstream Murray 13.26 m 6/12/2019 7:45 Not measured Not measured Not measured Not measured Not measured Not measured Full data
Weirs Lock 3 Downstream Murray 6.32 m 6/12/2019 7:45 Not measured Not measured Not measured Not measured Not measured Not measured Full data
Weirs Lock 3 Upstream Murray 9.84 m 6/12/2019 7:45 Not measured Not measured Not measured Not measured Not measured Not measured Full data
Weirs Lock 2 Downstream Murray 3.36 m 6/12/2019 7:45 Not measured Not measured Not measured Not measured Not measured Not measured Full data
Weirs Lock 2 Upstream Murray 6.13 m 6/12/2019 7:45 Not measured Not measured Not measured 22.0°C 8/12/2019 7:15 212.7 μS/cm 7/12/2019 7:45 Not measured Full data
River Gauge Morgan Downstream Murray Not measured Not measured Not measured 3356.5 ML/d7/12/2019 21:30 Not measured 229.3 μS/cm 8/12/2019 6:45 Not measured Full data
Weirs Lock 1 Downstream Murray 0.84 m 6/12/2019 7:45 Not measured Not measured 3547.1 ML/d6/12/2019 7:45 Not measured Not measured Not measured Full data
Weirs Lock 1 Upstream Murray 3.23 m 6/12/2019 7:45 Not measured Not measured Not measured 22.9°C 8/12/2019 16:15 203.0 μS/cm 8/12/2019 15:45 Not measured Full data
River Gauge Murray Bridge Murray 0.73 m 6/12/2019 7:45 Not measured Not measured Not measured 20.0°C 8/12/2019 9:45 242.6 μS/cm 8/12/2019 9:45 Not measured Full data
River Gauge Lake Alexandrina Murray 0.71 m 7/12/2019 5:45 Not measured 1588 GL 7/12/2019 5:45 Not measured Not measured 824.7 μS/cm 8/12/2019 9:45 Not measured Full data
River Gauge Lake Albert Murray 0.77 m 3/12/2019 5:45 Not measured 274 GL 3/12/2019 5:45 Not measured Not measured Not measured Not measured Full data
River Gauge Tauwitchere Barrage Murray 0.8 m 6/12/2019 7:45 Not measured Not measured Not measured Not measured Not measured Not measured Full data
River Gauge Mundoo Barrage Murray 0.65 m 6/12/2019 7:45 Not measured Not measured Not measured Not measured Not measured Not measured Full data
Weirs Wentworth Weir Murray 27.68 m 8/12/2019 17:45 Not measured Not measured 6505.5 ML/d8/12/2019 8:45 Not measured 90.0 μS/cm 6/12/2019 7:45 0.0 mm 31/01/2019 9:00 Full data
River Gauge Balranald Murrumbidgee 1.6 m 8/12/2019 17:45 1182 ML/Day 8/12/2019 17:45 Not measured Not measured 23.2°C 8/12/2019 17:45 87.1 μS/cm 8/12/2019 17:45 Not measured Full data
River Gauge Peechelba Ovens 126.53 m 8/12/2019 17:45 620 ML/Day 8/12/2019 17:45 Not measured Not measured 22.9°C 8/12/2019 17:45 45.3 μS/cm 8/12/2019 17:45 Not measured Full data
River Gauge Edward Escape Wakool 0.71 m 8/12/2019 17:45 621 ML/Day 8/12/2019 17:45 Not measured Not measured 22.5°C 8/12/2019 17:45 63.5 μS/cm 8/12/2019 17:45 Not measured Full data
River Gauge Wakool Canal Wakool 0.43 m 8/12/2019 17:45 Not measured Not measured 68.0 ML/d8/12/2019 8:45 Not measured Not measured Not measured Full data